Time;durP1;ratioP1;P1;durP2;ratioP2;P2;SDS_P1;SDS_P2;PMS_P1;PMS_P2;Temp;Humidity;BMP_temperature;BMP_pressure;BME280_temperature;BME280_humidity;BME280_pressure;Samples;Min_cycle;Max_cycle;Signal;HPM_P1;HPM_P2
2022/04/18 00:07:43;;;;;;;5.60;1.60;;;;;;;8.18;46.03;100919.19;18431392;32;20065;-66
2022/04/18 00:17:47;;;;;;;5.15;1.75;;;;;;;8.10;46.64;100910.41;18432660;32;20093;-65
2022/04/18 00:27:50;;;;;;;4.55;1.98;;;;;;;8.22;45.80;100898.44;18432250;32;20142;-65
2022/04/18 00:37:55;;;;;;;4.78;2.20;;;;;;;8.08;47.13;100890.41;18432089;32;20096;-66
2022/04/18 00:47:58;;;;;;;4.30;1.98;;;;;;;7.95;47.70;100879.81;18431430;32;20147;-66
2022/04/18 00:58:03;;;;;;;6.32;1.90;;;;;;;8.01;46.99;100868.66;18430631;32;20105;-66
2022/04/18 01:08:07;;;;;;;4.37;2.03;;;;;;;7.99;46.94;100863.41;18431026;32;20097;-66
2022/04/18 01:18:11;;;;;;;2.25;1.23;;;;;;;8.28;46.39;100849.97;18431226;32;20111;-66
2022/04/18 01:38:37;;;;;;;4.00;1.73;;;;;;;9.06;38.93;100816.28;18428869;32;20093;-66
2022/04/18 01:48:41;;;;;;;8.13;1.58;;;;;;;9.27;38.03;100810.41;18427556;32;20158;-65
2022/04/18 01:58:44;;;;;;;3.55;1.80;;;;;;;9.49;37.99;100801.06;18428186;32;20096;-66
2022/04/18 02:08:49;;;;;;;2.80;1.52;;;;;;;9.64;36.90;100783.81;18427743;32;20124;-66
2022/04/18 02:18:52;;;;;;;3.17;1.62;;;;;;;9.41;37.77;100782.75;18427128;32;20100;-66
2022/04/18 02:28:57;;;;;;;1.73;1.48;;;;;;;9.44;37.64;100761.94;18430129;32;20111;-66
2022/04/18 02:39:00;;;;;;;4.70;1.85;;;;;;;9.46;37.38;100758.47;18433775;32;20457;-66
2022/04/18 02:49:04;;;;;;;2.03;1.40;;;;;;;9.39;38.20;100747.09;18432393;32;20426;-66
2022/04/18 02:59:07;;;;;;;4.37;1.80;;;;;;;9.07;39.04;100738.19;18432725;32;20456;-66
2022/04/18 03:09:18;;;;;;;3.28;1.75;;;;;;;9.10;38.59;100730.38;18435094;32;20452;-66
2022/04/18 03:19:22;;;;;;;3.87;1.80;;;;;;;9.20;38.63;100731.34;18434741;32;20104;-66
2022/04/18 03:29:26;;;;;;;3.00;1.58;;;;;;;9.12;39.53;100723.44;18434938;32;20089;-65
2022/04/18 03:49:51;;;;;;;4.20;1.90;;;;;;;9.00;40.15;100702.50;18434883;32;20130;-66
2022/04/18 03:59:55;;;;;;;4.65;1.87;;;;;;;9.11;39.70;100694.81;18433531;32;20381;-66
2022/04/18 04:09:59;;;;;;;2.25;1.30;;;;;;;9.00;39.96;100689.50;18434295;32;20113;-66
2022/04/18 04:20:02;;;;;;;3.97;2.10;;;;;;;9.04;40.50;100690.41;18433113;32;20376;-66
2022/04/18 04:30:08;;;;;;;8.27;3.10;;;;;;;8.92;41.38;100684.22;18432671;32;20428;-66
2022/04/18 04:40:12;;;;;;;6.93;2.05;;;;;;;9.23;40.68;100687.06;18432307;32;20089;-66
2022/04/18 04:50:17;;;;;;;3.83;1.80;;;;;;;8.77;44.71;100684.91;18431310;32;20419;-66
2022/04/18 05:00:20;;;;;;;3.10;1.83;;;;;;;8.86;45.73;100684.16;18431772;32;20115;-66
2022/04/18 05:10:25;;;;;;;5.05;1.92;;;;;;;8.89;47.83;100684.16;18430913;32;20101;-66
2022/04/18 05:20:28;;;;;;;3.17;1.83;;;;;;;9.47;47.71;100679.44;18430576;32;20109;-66
2022/04/18 05:30:33;;;;;;;3.30;1.85;;;;;;;8.53;45.15;100682.94;18429815;32;20108;-66
2022/04/18 05:40:36;;;;;;;3.42;1.87;;;;;;;9.39;45.16;100679.34;18429518;32;20100;-66
2022/04/18 05:50:45;;;;;;;6.25;2.45;;;;;;;9.54;46.32;100674.25;18427571;32;20101;-66
2022/04/18 06:00:48;;;;;;;5.10;2.33;;;;;;;9.71;45.87;100676.09;18427552;32;20121;-66
2022/04/18 06:10:53;;;;;;;3.55;1.70;;;;;;;9.86;45.66;100683.12;18435678;32;20092;-66
2022/04/18 06:20:56;;;;;;;4.45;2.10;;;;;;;9.93;44.84;100676.22;18436237;32;20115;-66
2022/04/18 06:31:00;;;;;;;4.32;1.55;;;;;;;10.28;44.45;100678.09;18436866;32;20092;-66
2022/04/18 06:41:04;;;;;;;5.37;2.05;;;;;;;10.50;44.04;100670.38;18421196;32;20104;-66
2022/04/18 06:51:08;;;;;;;6.20;2.37;;;;;;;10.60;43.59;100668.66;18420537;32;20092;-66
2022/04/18 07:01:11;;;;;;;4.60;2.37;;;;;;;10.83;43.19;100660.87;18435084;32;20377;-66
2022/04/18 07:11:16;;;;;;;4.35;1.98;;;;;;;11.36;40.36;100661.72;18434488;32;20093;-66
2022/04/18 07:21:20;;;;;;;6.05;2.33;;;;;;;11.63;39.57;100672.13;18434380;32;20093;-66
2022/04/18 07:31:25;;;;;;;3.45;1.85;;;;;;;11.46;38.00;100652.09;18420327;32;20105;-66
2022/04/18 07:41:30;;;;;;;2.65;1.50;;;;;;;11.68;35.87;100645.97;18418997;32;20463;-66
2022/04/18 07:51:39;;;;;;;2.35;1.50;;;;;;;12.67;31.80;100636.78;18432855;32;20093;-66
2022/04/18 08:01:43;;;;;;;3.37;1.37;;;;;;;12.99;28.96;100623.44;18432996;32;20107;-67
2022/04/18 08:11:48;;;;;;;3.47;1.55;;;;;;;13.79;29.01;100620.03;18432870;32;20093;-66
2022/04/18 08:21:52;;;;;;;4.03;1.80;;;;;;;14.05;27.86;100609.22;18432567;32;20104;-65
2022/04/18 08:31:56;;;;;;;8.27;2.55;;;;;;;14.79;28.19;100606.41;18431002;32;20353;-66
2022/04/18 08:42:00;;;;;;;5.07;1.60;;;;;;;13.94;28.54;100605.88;18432898;32;20347;-66
2022/04/18 09:02:28;;;;;;;3.83;1.80;;;;;;;14.26;27.32;100583.53;18432551;32;20092;-66
2022/04/18 09:12:32;;;;;;;2.87;1.52;;;;;;;13.13;29.26;100570.91;18431330;32;20090;-66
2022/04/18 09:22:43;;;;;;;5.03;1.90;;;;;;;14.32;28.40;100553.69;18430699;32;20120;-66
2022/04/18 09:32:57;;;;;;;4.10;1.80;;;;;;;14.22;27.44;100545.97;18430014;32;20108;-66
2022/04/18 09:43:01;;;;;;;2.85;1.37;;;;;;;14.83;25.89;100522.25;18436674;32;20145;-66
2022/04/18 09:53:16;;;;;;;5.15;1.40;;;;;;;17.37;21.76;100508.56;18436367;32;20125;-67
2022/04/18 10:03:20;;;;;;;1.80;1.10;;;;;;;20.79;18.82;100493.78;18433325;32;20093;-67
2022/04/18 10:13:26;;;;;;;2.75;1.20;;;;;;;16.99;20.40;100495.50;18435841;32;20097;-66
2022/04/18 10:24:01;;;;;;;3.78;1.80;;;;;;;16.35;20.55;100485.75;18435447;32;20430;-66
2022/04/18 10:34:13;;;;;;;4.35;1.70;;;;;;;15.45;24.58;100479.84;18435833;32;20093;-66
2022/04/18 10:44:17;;;;;;;3.62;1.70;;;;;;;14.64;22.86;100470.87;18435289;32;20081;-66
2022/04/18 10:54:23;;;;;;;3.50;1.50;;;;;;;14.88;24.09;100459.09;18434565;32;20101;-66
2022/04/18 11:04:27;;;;;;;3.55;1.42;;;;;;;14.72;24.60;100458.47;18435058;32;20100;-66
2022/04/18 11:14:50;;;;;;;2.78;1.08;;;;;;;14.77;21.70;100451.41;18434796;32;20137;-66
2022/04/18 11:25:03;;;;;;;4.22;1.65;;;;;;;15.86;23.63;100435.97;18434546;32;20144;-66
2022/04/18 11:35:09;;;;;;;2.53;1.10;;;;;;;17.20;23.06;100425.47;18433732;32;20099;-67
2022/04/18 11:45:23;;;;;;;2.22;1.48;;;;;;;17.48;22.34;100423.81;18429976;32;20125;-67
2022/04/18 11:55:27;;;;;;;2.17;1.20;;;;;;;14.87;21.94;100425.81;18432226;32;20339;-67
2022/04/18 12:15:54;;;;;;;3.67;1.55;;;;;;;13.90;28.54;100407.38;18432849;32;20510;-66
2022/04/18 12:25:58;;;;;;;2.28;1.40;;;;;;;13.17;29.25;100403.97;18433082;32;20143;-66
2022/04/18 12:36:04;;;;;;;2.67;1.17;;;;;;;13.83;28.72;100393.44;18432305;32;20508;-66
2022/04/18 12:46:09;;;;;;;3.80;1.37;;;;;;;14.20;25.74;100381.50;18432149;32;20093;-66
2022/04/18 12:56:20;;;;;;;2.87;1.80;;;;;;;15.24;26.73;100363.72;18430271;32;20171;-66
2022/04/18 13:06:23;;;;;;;2.97;1.40;;;;;;;15.74;24.90;100346.75;18430268;32;20104;-67
2022/04/18 13:16:28;;;;;;;3.60;1.48;;;;;;;16.12;24.07;100336.22;18428108;32;20174;-66
2022/04/18 13:26:32;;;;;;;3.60;1.37;;;;;;;16.67;22.62;100325.06;18414083;32;20092;-66
2022/04/18 13:36:37;;;;;;;2.55;1.20;;;;;;;15.80;25.03;100323.81;18427649;32;20187;-67
2022/04/18 13:46:41;;;;;;;2.70;1.42;;;;;;;15.70;24.14;100310.91;18426552;32;20096;-66
2022/04/18 13:56:47;;;;;;;2.95;1.48;;;;;;;15.05;25.41;100323.81;18426873;32;20778;-66
2022/04/18 14:06:51;;;;;;;2.40;1.40;;;;;;;13.92;30.74;100342.59;18426737;32;20112;-66
2022/04/18 14:27:16;;;;;;;;;;;;;;;15.37;26.93;100299.44;18418758;32;20100;-66
2022/04/18 14:37:22;;;;;;;4.22;1.42;;;;;;;15.98;23.87;100276.03;18436321;32;20034;-66
2022/04/18 14:47:27;;;;;;;2.67;1.40;;;;;;;15.53;23.59;100272.72;18421187;32;20362;-66
2022/04/18 14:57:46;;;;;;;3.83;1.65;;;;;;;15.66;25.12;100258.38;18432340;32;20111;-69
2022/04/18 15:07:49;;;;;;;1.37;1.15;;;;;;;15.80;24.66;100243.97;18369675;32;20090;-68
2022/04/18 15:17:54;;;;;;;3.10;1.70;;;;;;;15.90;24.37;100240.22;18355554;32;20446;-66
2022/04/18 15:27:57;;;;;;;2.85;1.62;;;;;;;15.89;22.55;100238.47;18355964;32;20101;-66
2022/04/18 15:38:01;;;;;;;3.97;2.05;;;;;;;14.95;24.11;100246.94;18427922;32;20358;-66
2022/04/18 15:48:05;;;;;;;5.95;2.70;;;;;;;15.30;24.97;100239.09;18419223;32;20472;-66
2022/04/18 15:58:09;;;;;;;3.55;1.73;;;;;;;15.05;25.12;100235.28;18420193;32;20315;-66
2022/04/18 16:08:13;;;;;;;1.95;1.10;;;;;;;15.38;24.73;100224.88;18433345;32;20113;-66
2022/04/18 16:18:17;;;;;;;4.82;1.95;;;;;;;14.96;24.80;100230.25;18418839;32;20114;-66
2022/04/18 16:28:20;;;;;;;2.67;1.40;;;;;;;14.94;26.79;100232.06;18418583;32;20084;-65
2022/04/18 16:38:27;;;;;;;4.03;1.70;;;;;;;13.90;27.62;100247.31;18418416;32;20717;-66
2022/04/18 16:48:30;;;;;;;5.12;1.90;;;;;;;12.28;32.17;100262.72;18415213;32;20093;-66
2022/04/18 16:58:35;;;;;;;5.87;1.67;;;;;;;11.59;35.07;100280.84;18430789;32;20096;-65
2022/04/18 17:08:38;;;;;;;2.78;1.60;;;;;;;12.00;31.93;100295.28;18416295;32;20137;-67
2022/04/18 17:18:44;;;;;;;3.83;1.48;;;;;;;12.66;33.29;100303.28;18431030;32;20175;-66
2022/04/18 17:28:47;;;;;;;16.62;5.82;;;;;;;12.59;33.60;100307.75;18430160;32;20127;-66
2022/04/18 17:38:52;;;;;;;3.58;1.80;;;;;;;12.47;34.24;100305.28;18415388;32;20095;-66
2022/04/18 17:48:59;;;;;;;3.67;1.70;;;;;;;12.38;35.26;100287.06;18415333;32;20109;-66
2022/04/18 17:59:05;;;;;;;3.83;1.75;;;;;;;12.49;34.84;100286.06;18416175;32;20109;-66
2022/04/18 18:09:08;;;;;;;98.93;27.40;;;;;;;12.13;36.40;100289.94;18423449;32;20476;-66
2022/04/18 18:19:12;;;;;;;557.60;167.98;;;;;;;12.14;37.17;100289.06;18421430;32;20108;-66
2022/04/18 18:29:16;;;;;;;7.75;5.22;;;;;;;11.99;38.41;100290.03;18435688;32;20089;-66
2022/04/18 18:39:20;;;;;;;6.43;2.00;;;;;;;11.61;39.71;100306.06;18421066;32;20120;-66
2022/04/18 18:49:23;;;;;;;2.70;1.75;;;;;;;11.19;40.62;100298.56;18421391;32;20172;-66
2022/04/18 18:59:28;;;;;;;4.68;2.15;;;;;;;10.84;41.94;100307.44;18421053;32;20097;-66
2022/04/18 19:09:31;;;;;;;4.15;2.10;;;;;;;10.82;42.71;100309.19;18434765;32;20113;-66
2022/04/18 19:29:56;;;;;;;5.35;2.40;;;;;;;10.23;44.21;100301.53;18435623;32;20136;-66
2022/04/18 19:40:01;;;;;;;7.28;2.45;;;;;;;10.25;44.19;100302.41;18434922;32;20446;-66
2022/04/18 19:50:05;;;;;;;3.35;1.87;;;;;;;9.77;46.24;100300.75;18433882;32;20122;-66
2022/04/18 20:00:14;;;;;;;5.00;1.98;;;;;;;9.48;47.05;100313.75;18433838;32;20093;-66
2022/04/18 20:10:17;;;;;;;6.10;2.45;;;;;;;9.20;47.66;100312.00;18419195;32;20115;-65
2022/04/18 20:20:22;;;;;;;4.80;2.08;;;;;;;8.28;49.45;100319.38;18417579;32;20097;-66
2022/04/18 20:30:25;;;;;;;5.47;2.25;;;;;;;8.04;49.04;100320.09;18415577;32;20101;-66
2022/04/18 20:40:30;;;;;;;7.12;2.47;;;;;;;8.47;48.77;100325.56;18415407;32;20116;-65
2022/04/18 20:50:34;;;;;;;7.68;3.15;;;;;;;7.83;52.23;100333.81;18415281;32;20089;-66
2022/04/18 21:00:39;;;;;;;7.12;3.47;;;;;;;7.62;51.85;100323.25;18429036;32;20101;-66
2022/04/18 21:10:43;;;;;;;7.22;2.70;;;;;;;7.67;53.08;100322.41;18429157;32;20111;-66
2022/04/18 21:20:49;;;;;;;7.87;2.50;;;;;;;7.83;52.68;100315.63;18428670;32;20093;-66
2022/04/18 21:30:53;;;;;;;5.85;2.92;;;;;;;7.86;52.37;100318.25;18428415;32;20100;-66
2022/04/18 21:40:57;;;;;;;6.45;2.50;;;;;;;8.39;51.25;100314.25;18412861;32;20112;-66
2022/04/18 21:51:00;;;;;;;5.70;2.62;;;;;;;8.14;52.81;100308.91;18426922;32;20107;-66
2022/04/18 22:01:07;;;;;;;8.30;3.47;;;;;;;8.32;51.52;100308.16;18411354;32;20331;-66
2022/04/18 22:11:10;;;;;;;7.40;3.05;;;;;;;7.84;54.24;100302.63;18426774;32;20093;-66
2022/04/18 22:31:41;;;;;;;6.87;3.15;;;;;;;8.01;54.04;100288.88;18274861;32;20116;-66
2022/04/18 22:41:46;;;;;;;6.35;2.97;;;;;;;7.89;54.75;100280.16;18276812;32;20151;-65
2022/04/18 22:51:49;;;;;;;6.97;3.15;;;;;;;8.00;54.26;100263.75;18297561;32;20121;-66
2022/04/18 23:01:54;;;;;;;7.00;3.58;;;;;;;8.10;53.76;100256.88;18331252;32;20097;-66
2022/04/18 23:11:59;;;;;;;11.52;3.40;;;;;;;7.83;55.16;100245.47;18435482;32;20112;-66
2022/04/18 23:22:04;;;;;;;9.93;3.87;;;;;;;8.04;55.58;100235.19;18434850;32;20528;-66
2022/04/18 23:32:08;;;;;;;5.72;3.45;;;;;;;7.97;57.49;100223.00;18434723;32;20385;-66
2022/04/18 23:42:13;;;;;;;8.13;3.33;;;;;;;7.95;56.95;100218.66;18433836;32;20453;-66
2022/04/18 23:52:16;;;;;;;7.57;3.17;;;;;;;7.54;56.98;100207.13;18416682;32;551084;-66
